createdAt,value
2018-02-18T10:36:33.150Z,5.82
2018-02-18T10:39:00.095Z,5.99
2018-02-18T10:41:27.946Z,5.77
2018-02-18T10:43:54.620Z,5.86
2018-02-18T10:46:21.404Z,5.66
2018-02-18T10:48:48.270Z,5.64
2018-02-18T10:51:15.302Z,5.67
2018-02-18T10:53:42.426Z,6.00
2018-02-18T10:56:12.593Z,6.31
2018-02-18T10:58:39.266Z,6.01
2018-02-18T11:01:05.960Z,6.21
2018-02-18T11:06:11.279Z,6.79
2018-02-18T11:08:38.691Z,6.30
2018-02-18T11:11:05.366Z,6.66
2018-02-18T11:38:51.418Z,7.24
2018-02-18T11:41:18.188Z,7.33
2018-02-18T11:43:44.880Z,7.33
2018-02-18T11:46:12.388Z,7.29
2018-02-18T11:48:39.221Z,7.38
2018-02-18T11:51:05.936Z,7.71
2018-02-18T11:53:32.640Z,7.61
2018-02-18T11:55:59.532Z,7.73
2018-02-18T11:58:26.393Z,7.68
2018-02-18T12:00:53.125Z,7.83
2018-02-18T12:03:20.107Z,7.62
2018-02-18T12:05:46.801Z,7.77
2018-02-18T12:08:13.585Z,7.86
2018-02-18T12:10:41.129Z,7.93
2018-02-18T12:13:09.278Z,7.85
2018-02-18T12:15:35.948Z,8.14
2018-02-18T12:18:02.633Z,8.03
2018-02-18T12:20:29.225Z,8.25
2018-02-18T12:22:56.149Z,8.24
2018-02-18T12:25:30.393Z,8.25
2018-02-18T12:27:57.113Z,8.23
2018-02-18T12:30:23.979Z,8.38
2018-02-18T12:32:50.686Z,8.22
2018-02-18T12:35:22.470Z,8.36
2018-02-18T12:37:49.927Z,8.48
2018-02-18T12:40:17.280Z,8.44
2018-02-18T12:42:43.951Z,8.32
2018-02-18T12:47:54.085Z,8.46
2018-02-18T12:50:21.826Z,8.37
2018-02-18T12:52:48.553Z,8.68
2018-02-18T13:13:17.251Z,8.69
2018-02-18T13:15:44.812Z,8.67
2018-02-18T13:18:13.091Z,8.45
2018-02-18T13:20:41.076Z,8.58
2018-02-18T13:41:10.211Z,8.99
2018-02-18T13:43:38.619Z,8.85
2018-02-18T13:46:06.144Z,8.87
2018-02-18T13:48:35.422Z,8.79
2018-02-18T13:51:03.146Z,8.50
2018-02-18T13:53:30.768Z,8.62
2018-02-18T13:56:01.720Z,8.72
2018-02-18T13:58:30.162Z,8.65
2018-02-18T14:00:57.014Z,8.63
2018-02-18T14:03:24.441Z,8.70
2018-02-18T14:05:51.241Z,8.62
2018-02-18T14:08:18.681Z,8.72
2018-02-18T14:10:45.706Z,8.74
2018-02-18T14:13:12.898Z,8.95
2018-02-18T14:15:39.608Z,8.90
2018-02-18T14:18:07.999Z,8.77
2018-02-18T14:20:35.380Z,8.90
2018-02-18T14:23:02.786Z,8.90
2018-02-18T14:25:29.437Z,9.05
2018-02-18T14:27:57.682Z,8.91
2018-02-18T14:30:24.453Z,9.21
2018-02-18T14:32:52.383Z,8.81
2018-02-18T14:35:19.211Z,8.87
2018-02-18T14:37:47.059Z,8.80
2018-02-18T14:40:14.885Z,8.67
2018-02-18T14:43:00.407Z,8.64
2018-02-18T14:45:46.228Z,8.43
2018-02-18T14:48:32.160Z,8.61
2018-02-18T15:09:00.298Z,7.94
2018-02-18T15:11:27.617Z,7.95
2018-02-18T15:13:58.246Z,7.95
2018-02-18T15:16:24.889Z,8.03
2018-02-18T15:18:51.795Z,7.83
2018-02-18T15:21:19.166Z,7.88
2018-02-18T15:23:46.032Z,7.80
2018-02-18T15:26:12.654Z,7.60
2018-02-18T15:46:40.455Z,7.44
2018-02-18T15:49:07.514Z,7.40
2018-02-18T15:51:34.198Z,7.38
2018-02-18T16:12:01.824Z,7.08
2018-02-18T16:14:29.278Z,7.06
2018-02-18T16:16:56.136Z,7.02
2018-02-18T16:19:23.644Z,6.95
2018-02-18T16:21:50.686Z,6.92
2018-02-18T16:42:18.627Z,6.62
2018-02-18T16:44:46.090Z,6.55
2018-02-18T16:47:13.594Z,6.47
2018-02-18T16:49:40.789Z,6.44
2018-02-18T16:52:08.462Z,6.44
2018-02-18T16:54:36.068Z,6.35
2018-02-18T16:57:06.824Z,6.26
2018-02-18T16:59:34.027Z,6.19
2018-02-18T17:02:02.670Z,6.13
2018-02-18T17:04:30.886Z,6.05
2018-02-18T17:06:59.967Z,5.96
2018-02-18T17:09:29.839Z,5.91
2018-02-18T17:12:00.265Z,5.81
2018-02-18T17:14:29.460Z,5.79
2018-02-18T17:16:59.394Z,5.78
2018-02-18T17:19:27.741Z,5.62
2018-02-18T17:21:56.318Z,5.59
2018-02-18T17:24:25.028Z,5.36
2018-02-18T17:26:53.521Z,5.22
2018-02-18T17:29:22.057Z,4.74
2018-02-18T17:31:51.250Z,4.99
2018-02-18T17:34:19.881Z,5.16
2018-02-18T17:36:48.466Z,5.01
2018-02-18T17:39:16.964Z,4.94
2018-02-18T17:41:45.541Z,4.94
2018-02-18T17:44:14.210Z,4.87
2018-02-18T17:46:43.160Z,4.83
2018-02-18T17:49:11.666Z,4.66
2018-02-18T17:51:40.290Z,4.53
2018-02-18T17:54:08.853Z,4.50
2018-02-18T17:56:37.501Z,3.93
2018-02-18T17:59:07.239Z,4.30
2018-02-18T22:30:03.531Z,0.97
